Historique des mesures à Cassis (13260), France
Quotidien Résumé Janvier 29, 2018 Unités:  Métrique/US    US   Métrique
« Précédent (Jour)
Suivant (Jour) »
Quotidien Hebdomadaire Mensuel Annuel Période au choix
  Maximum: Minimum: Moyenne:
Température: 32 °F /  TemperatureC °C 46 °F /  7.8 °C 49.3 °F /  9.6 °C
Point de rosée: 32 °F /  DewpointC °C 41.7 °F /  5.4 °C 43.5 °F /  6.4 °C
Humidité: Humidity % 72 % 77 %
Vitesse du vent: WindSpeedKMH mph /  0 km/h - 1.3 mph /  2.1 km/h
Rafales: WindSpeedGustKMH mph /  0 km/h - -
Vent:- - WSW
Pression: 0 in /  PressurehPa hPa 30.3 in /  1027.0 hPa -
Précipitations: 0 in /  0.0 mm    
Historical Graphs
 
 
Mesures pour : Janvier 29, 2018
Heure Temperature Point de rosée Pression Vent Vitesse du vent Rafales Humidité Pluie (par heure) Conditions
32 °F /  TemperatureC °C 32 °F /  DewpointC °C 0 in /  PressurehPa hPa Calm     Humidity % 0 in /  HourlyPrecipMM mm SoftwareType W/m2
00:12 48 °F /  8.9 °C 42.6 °F /  5.9 °C 30.4 in /  1030.4 hPa Calm     82 % 0 in /  0.0 mm open2300-1.11 W/m2
01:12 48.4 °F /  9.1 °C 43.2 °F /  6.2 °C 30.4 in /  1030.0 hPa Calm   1.4 mph /  2.3 km/h 82 % 0 in /  0.0 mm open2300-1.11 W/m2
02:12 47.5 °F /  8.6 °C 42.4 °F /  5.8 °C 30.4 in /  1030.0 hPa Calm     83 % 0 in /  0.0 mm open2300-1.11 W/m2
03:12 48 °F /  8.9 °C 42.6 °F /  5.9 °C 30.4 in /  1030.0 hPa Calm   1.1 mph /  1.8 km/h 82 % 0 in /  0.0 mm open2300-1.11 W/m2
04:12 46.9 °F /  8.3 °C 42.1 °F /  5.6 °C 30.4 in /  1029.7 hPa NNW 2.1 mph /  3.4 km/h 2.1 mph /  3.4 km/h 83 % 0 in /  0.0 mm open2300-1.11 W/m2
05:12 46.8 °F /  8.2 °C 42.4 °F /  5.8 °C 30.4 in /  1029.7 hPa WNW 3.2 mph /  5.1 km/h 5.8 mph /  9.3 km/h 85 % 0 in /  0.0 mm open2300-1.11 W/m2
06:12 46.6 °F /  8.1 °C 42.6 °F /  5.9 °C 30.4 in /  1030.0 hPa NW 3.2 mph /  5.1 km/h 3.2 mph /  5.1 km/h 86 % 0 in /  0.0 mm open2300-1.11 W/m2
07:12 46.2 °F /  7.9 °C 42.1 °F /  5.6 °C 30.4 in /  1029.7 hPa Calm   4.0 mph /  6.4 km/h 85 % 0 in /  0.0 mm open2300-1.11 W/m2
08:12 46 °F /  7.8 °C 41.7 °F /  5.4 °C 30.4 in /  1030.0 hPa WNW 5.0 mph /  8 km/h 5.0 mph /  8 km/h 85 % 0 in /  0.0 mm open2300-1.11 W/m2
09:12 47.5 °F /  8.6 °C 43 °F /  6.1 °C 30.4 in /  1030.0 hPa WNW 3.5 mph /  5.6 km/h 6.1 mph /  9.8 km/h 84 % 0 in /  0.0 mm open2300-1.11 W/m2
10:12 49.1 °F /  9.5 °C 43.5 °F /  6.4 °C 30.4 in /  1030.4 hPa Calm   1.8 mph /  2.9 km/h 81 % 0 in /  0.0 mm open2300-1.11 W/m2
11:12 52.3 °F /  11.3 °C 46 °F /  7.8 °C 30.4 in /  1030.4 hPa Calm   3.5 mph /  5.6 km/h 79 % 0 in /  0.0 mm open2300-1.11 W/m2
12:12 55 °F /  12.8 °C 47.1 °F /  8.4 °C 30.4 in /  1030.0 hPa Calm   2.6 mph /  4.2 km/h 75 % 0 in /  0.0 mm open2300-1.11 W/m2
13:12 56.1 °F /  13.4 °C 47.5 °F /  8.6 °C 30.4 in /  1029.3 hPa Calm   3.2 mph /  5.1 km/h 73 % 0 in /  0.0 mm open2300-1.11 W/m2
14:12 56.5 °F /  13.6 °C 47.5 °F /  8.6 °C 30.4 in /  1028.3 hPa South 3.5 mph /  5.6 km/h 4.3 mph /  6.9 km/h 72 % 0 in /  0.0 mm open2300-1.11 W/m2
15:12 56.1 °F /  13.4 °C 47.1 °F /  8.4 °C 30.4 in /  1028.0 hPa Calm   2.6 mph /  4.2 km/h 72 % 0 in /  0.0 mm open2300-1.11 W/m2
16:12 55.2 °F /  12.9 °C 46.8 °F /  8.2 °C 30.4 in /  1027.7 hPa SSW 7.6 mph /  12.2 km/h 7.6 mph /  12.2 km/h 73 % 0 in /  0.0 mm open2300-1.11 W/m2
17:12 54.3 °F /  12.4 °C 46.6 °F /  8.1 °C 30.3 in /  1027.3 hPa Calm     75 % 0 in /  0.0 mm open2300-1.11 W/m2
18:12 51.4 °F /  10.8 °C 44.4 °F /  6.9 °C 30.3 in /  1027.3 hPa Calm   3.2 mph /  5.1 km/h 77 % 0 in /  0.0 mm open2300-1.11 W/m2
19:12 49.6 °F /  9.8 °C 43.7 °F /  6.5 °C 30.3 in /  1027.3 hPa Calm   3.2 mph /  5.1 km/h 80 % 0 in /  0.0 mm open2300-1.11 W/m2
20:12 48.9 °F /  9.4 °C 43.3 °F /  6.3 °C 30.4 in /  1027.7 hPa North 1.8 mph /  2.9 km/h 1.8 mph /  2.9 km/h 81 % 0 in /  0.0 mm open2300-1.11 W/m2
21:12 47.5 °F /  8.6 °C 42.3 °F /  5.7 °C 30.3 in /  1027.3 hPa NNW 2.1 mph /  3.4 km/h 2.1 mph /  3.4 km/h 82 % 0 in /  0.0 mm open2300-1.11 W/m2
22:12 47.8 °F /  8.8 °C 43 °F /  6.1 °C 30.3 in /  1027.3 hPa Calm     83 % 0 in /  0.0 mm open2300-1.11 W/m2
23:12 47.5 °F /  8.6 °C 43 °F /  6.1 °C 30.3 in /  1027.0 hPa Calm     84 % 0 in /  0.0 mm open2300-1.11 W/m2
Observations météo à CASSIS
WU-History script by Weather Underground - 1 mb